sensor_id;sensor_type;location;lat;lon;timestamp;P1;durP1;ratioP1;P2;durP2;ratioP2
71769;SDS011;66386;52.122;5.420;2023-02-28T00:00:10;2.55;;;1.50;;
71769;SDS011;66386;52.122;5.420;2023-02-28T00:02:40;3.22;;;1.80;;
71769;SDS011;66386;52.122;5.420;2023-02-28T00:05:08;4.22;;;1.80;;
71769;SDS011;66386;52.122;5.420;2023-02-28T00:07:36;3.13;;;1.40;;
71769;SDS011;66386;52.122;5.420;2023-02-28T00:10:04;6.27;;;1.97;;
71769;SDS011;66386;52.122;5.420;2023-02-28T00:12:34;3.65;;;1.80;;
71769;SDS011;66386;52.122;5.420;2023-02-28T00:15:01;3.83;;;1.45;;
71769;SDS011;66386;52.122;5.420;2023-02-28T00:17:28;5.32;;;1.95;;
71769;SDS011;66386;52.122;5.420;2023-02-28T00:19:54;5.95;;;1.73;;
71769;SDS011;66386;52.122;5.420;2023-02-28T00:22:21;2.70;;;1.73;;
71769;SDS011;66386;52.122;5.420;2023-02-28T00:24:48;2.67;;;1.58;;
71769;SDS011;66386;52.122;5.420;2023-02-28T00:27:14;2.33;;;1.70;;
71769;SDS011;66386;52.122;5.420;2023-02-28T00:29:41;5.05;;;2.10;;
71769;SDS011;66386;52.122;5.420;2023-02-28T00:32:07;3.55;;;1.52;;
71769;SDS011;66386;52.122;5.420;2023-02-28T00:34:34;4.30;;;1.60;;
71769;SDS011;66386;52.122;5.420;2023-02-28T00:37:07;2.55;;;1.67;;
71769;SDS011;66386;52.122;5.420;2023-02-28T00:39:36;4.03;;;1.55;;
71769;SDS011;66386;52.122;5.420;2023-02-28T00:42:03;4.95;;;1.48;;
71769;SDS011;66386;52.122;5.420;2023-02-28T00:44:30;5.82;;;1.42;;
71769;SDS011;66386;52.122;5.420;2023-02-28T00:46:57;4.90;;;1.90;;
71769;SDS011;66386;52.122;5.420;2023-02-28T00:49:25;2.67;;;1.45;;
71769;SDS011;66386;52.122;5.420;2023-02-28T00:51:53;5.15;;;1.80;;
71769;SDS011;66386;52.122;5.420;2023-02-28T00:54:21;2.28;;;1.55;;
71769;SDS011;66386;52.122;5.420;2023-02-28T00:56:52;3.30;;;1.60;;
71769;SDS011;66386;52.122;5.420;2023-02-28T00:59:18;5.47;;;1.60;;
71769;SDS011;66386;52.122;5.420;2023-02-28T01:01:45;4.45;;;1.20;;
71769;SDS011;66386;52.122;5.420;2023-02-28T01:04:12;4.88;;;1.50;;
71769;SDS011;66386;52.122;5.420;2023-02-28T01:06:40;3.63;;;1.70;;
71769;SDS011;66386;52.122;5.420;2023-02-28T01:09:07;4.18;;;1.55;;
71769;SDS011;66386;52.122;5.420;2023-02-28T01:11:34;4.00;;;1.37;;
71769;SDS011;66386;52.122;5.420;2023-02-28T01:14:02;2.28;;;1.30;;
71769;SDS011;66386;52.122;5.420;2023-02-28T01:16:30;5.03;;;1.60;;
71769;SDS011;66386;52.122;5.420;2023-02-28T01:18:56;4.00;;;1.40;;
71769;SDS011;66386;52.122;5.420;2023-02-28T01:21:23;8.35;;;1.80;;
71769;SDS011;66386;52.122;5.420;2023-02-28T01:23:50;2.47;;;1.00;;
71769;SDS011;66386;52.122;5.420;2023-02-28T01:26:18;3.35;;;1.15;;
71769;SDS011;66386;52.122;5.420;2023-02-28T01:28:47;2.10;;;1.05;;
71769;SDS011;66386;52.122;5.420;2023-02-28T01:31:14;2.00;;;1.17;;
71769;SDS011;66386;52.122;5.420;2023-02-28T01:33:41;1.85;;;0.90;;
71769;SDS011;66386;52.122;5.420;2023-02-28T01:36:12;1.90;;;0.70;;
71769;SDS011;66386;52.122;5.420;2023-02-28T01:38:41;3.47;;;1.27;;
71769;SDS011;66386;52.122;5.420;2023-02-28T01:41:08;2.10;;;1.27;;
71769;SDS011;66386;52.122;5.420;2023-02-28T01:46:11;2.95;;;1.17;;
71769;SDS011;66386;52.122;5.420;2023-02-28T01:48:40;3.37;;;1.23;;
71769;SDS011;66386;52.122;5.420;2023-02-28T01:51:13;3.33;;;1.70;;
71769;SDS011;66386;52.122;5.420;2023-02-28T01:53:53;3.00;;;1.02;;
71769;SDS011;66386;52.122;5.420;2023-02-28T01:56:26;5.00;;;1.40;;
71769;SDS011;66386;52.122;5.420;2023-02-28T01:58:55;1.65;;;1.13;;
71769;SDS011;66386;52.122;5.420;2023-02-28T02:01:22;5.57;;;1.30;;
71769;SDS011;66386;52.122;5.420;2023-02-28T02:03:59;5.05;;;1.15;;
71769;SDS011;66386;52.122;5.420;2023-02-28T02:06:29;4.05;;;1.35;;
71769;SDS011;66386;52.122;5.420;2023-02-28T02:09:00;2.55;;;1.10;;
71769;SDS011;66386;52.122;5.420;2023-02-28T02:11:26;1.50;;;1.20;;
71769;SDS011;66386;52.122;5.420;2023-02-28T02:16:48;2.40;;;1.60;;
71769;SDS011;66386;52.122;5.420;2023-02-28T02:33:35;2.55;;;1.40;;
71769;SDS011;66386;52.122;5.420;2023-02-28T02:36:26;3.42;;;1.40;;
71769;SDS011;66386;52.122;5.420;2023-02-28T02:39:17;7.15;;;1.58;;
71769;SDS011;66386;52.122;5.420;2023-02-28T02:41:50;4.00;;;1.60;;
71769;SDS011;66386;52.122;5.420;2023-02-28T02:44:20;5.00;;;1.48;;
71769;SDS011;66386;52.122;5.420;2023-02-28T02:46:53;3.28;;;1.65;;
71769;SDS011;66386;52.122;5.420;2023-02-28T02:49:26;2.53;;;1.60;;
71769;SDS011;66386;52.122;5.420;2023-02-28T02:51:57;2.88;;;1.40;;
71769;SDS011;66386;52.122;5.420;2023-02-28T02:54:33;5.10;;;1.50;;
71769;SDS011;66386;52.122;5.420;2023-02-28T02:57:03;5.50;;;1.50;;
71769;SDS011;66386;52.122;5.420;2023-02-28T02:59:35;3.25;;;1.30;;
71769;SDS011;66386;52.122;5.420;2023-02-28T03:02:06;3.42;;;1.65;;
71769;SDS011;66386;52.122;5.420;2023-02-28T03:04:43;4.13;;;1.17;;
71769;SDS011;66386;52.122;5.420;2023-02-28T03:07:14;3.80;;;1.53;;
71769;SDS011;66386;52.122;5.420;2023-02-28T03:09:49;3.10;;;1.48;;
71769;SDS011;66386;52.122;5.420;2023-02-28T03:12:18;2.85;;;1.30;;
71769;SDS011;66386;52.122;5.420;2023-02-28T03:14:49;4.57;;;1.65;;
71769;SDS011;66386;52.122;5.420;2023-02-28T03:17:25;4.05;;;1.67;;
71769;SDS011;66386;52.122;5.420;2023-02-28T03:28:36;3.35;;;1.70;;
71769;SDS011;66386;52.122;5.420;2023-02-28T03:33:48;4.47;;;1.50;;
71769;SDS011;66386;52.122;5.420;2023-02-28T03:36:27;2.08;;;1.27;;
71769;SDS011;66386;52.122;5.420;2023-02-28T03:38:59;4.18;;;1.40;;
71769;SDS011;66386;52.122;5.420;2023-02-28T03:41:45;3.25;;;1.60;;
71769;SDS011;66386;52.122;5.420;2023-02-28T03:44:19;4.15;;;1.58;;
71769;SDS011;66386;52.122;5.420;2023-02-28T03:47:10;6.13;;;1.93;;
71769;SDS011;66386;52.122;5.420;2023-02-28T03:52:47;3.55;;;1.52;;
71769;SDS011;66386;52.122;5.420;2023-02-28T03:55:31;3.40;;;1.50;;
71769;SDS011;66386;52.122;5.420;2023-02-28T03:58:01;2.58;;;1.73;;
71769;SDS011;66386;52.122;5.420;2023-02-28T04:00:37;3.73;;;1.80;;
71769;SDS011;66386;52.122;5.420;2023-02-28T04:03:09;5.53;;;1.45;;
71769;SDS011;66386;52.122;5.420;2023-02-28T04:05:48;7.00;;;1.25;;
71769;SDS011;66386;52.122;5.420;2023-02-28T04:08:18;2.35;;;1.40;;
71769;SDS011;66386;52.122;5.420;2023-02-28T04:10:45;6.07;;;1.50;;
71769;SDS011;66386;52.122;5.420;2023-02-28T04:13:17;3.23;;;1.70;;
71769;SDS011;66386;52.122;5.420;2023-02-28T04:15:44;3.55;;;1.50;;
71769;SDS011;66386;52.122;5.420;2023-02-28T04:18:10;2.80;;;1.70;;
71769;SDS011;66386;52.122;5.420;2023-02-28T04:20:37;2.30;;;1.20;;
71769;SDS011;66386;52.122;5.420;2023-02-28T04:23:03;1.80;;;1.05;;
71769;SDS011;66386;52.122;5.420;2023-02-28T04:25:30;2.77;;;1.80;;
71769;SDS011;66386;52.122;5.420;2023-02-28T04:27:56;2.00;;;1.40;;
71769;SDS011;66386;52.122;5.420;2023-02-28T04:30:22;2.60;;;1.30;;
71769;SDS011;66386;52.122;5.420;2023-02-28T04:32:49;3.60;;;1.20;;
71769;SDS011;66386;52.122;5.420;2023-02-28T04:35:15;3.10;;;1.50;;
71769;SDS011;66386;52.122;5.420;2023-02-28T04:37:42;3.40;;;1.40;;
71769;SDS011;66386;52.122;5.420;2023-02-28T04:40:09;2.83;;;1.40;;
71769;SDS011;66386;52.122;5.420;2023-02-28T04:42:35;4.75;;;1.40;;
71769;SDS011;66386;52.122;5.420;2023-02-28T04:45:02;1.38;;;0.95;;
71769;SDS011;66386;52.122;5.420;2023-02-28T04:47:29;2.38;;;1.15;;
71769;SDS011;66386;52.122;5.420;2023-02-28T04:49:56;3.33;;;1.00;;
71769;SDS011;66386;52.122;5.420;2023-02-28T04:52:23;2.13;;;1.35;;
71769;SDS011;66386;52.122;5.420;2023-02-28T04:54:49;2.13;;;1.25;;
71769;SDS011;66386;52.122;5.420;2023-02-28T04:57:16;3.72;;;1.30;;
71769;SDS011;66386;52.122;5.420;2023-02-28T04:59:43;2.13;;;1.02;;
71769;SDS011;66386;52.122;5.420;2023-02-28T05:02:10;3.87;;;1.00;;
71769;SDS011;66386;52.122;5.420;2023-02-28T05:04:36;2.53;;;1.52;;
71769;SDS011;66386;52.122;5.420;2023-02-28T05:07:03;4.47;;;0.98;;
71769;SDS011;66386;52.122;5.420;2023-02-28T05:09:30;3.03;;;1.45;;
71769;SDS011;66386;52.122;5.420;2023-02-28T05:11:56;2.35;;;1.52;;
71769;SDS011;66386;52.122;5.420;2023-02-28T05:14:23;2.93;;;1.43;;
71769;SDS011;66386;52.122;5.420;2023-02-28T05:16:49;2.83;;;1.23;;
71769;SDS011;66386;52.122;5.420;2023-02-28T05:19:16;1.73;;;1.10;;
71769;SDS011;66386;52.122;5.420;2023-02-28T05:21:50;2.90;;;1.15;;
71769;SDS011;66386;52.122;5.420;2023-02-28T05:24:18;1.83;;;1.23;;
71769;SDS011;66386;52.122;5.420;2023-02-28T05:26:50;2.70;;;1.13;;
71769;SDS011;66386;52.122;5.420;2023-02-28T05:29:18;3.05;;;1.25;;
71769;SDS011;66386;52.122;5.420;2023-02-28T05:31:45;2.40;;;1.00;;
71769;SDS011;66386;52.122;5.420;2023-02-28T05:34:12;2.60;;;1.17;;
71769;SDS011;66386;52.122;5.420;2023-02-28T05:36:38;3.15;;;1.30;;
71769;SDS011;66386;52.122;5.420;2023-02-28T05:39:06;3.13;;;1.37;;
71769;SDS011;66386;52.122;5.420;2023-02-28T05:41:40;1.67;;;1.30;;
71769;SDS011;66386;52.122;5.420;2023-02-28T05:44:07;1.48;;;1.00;;
71769;SDS011;66386;52.122;5.420;2023-02-28T05:46:34;1.70;;;1.23;;
71769;SDS011;66386;52.122;5.420;2023-02-28T05:49:00;2.25;;;1.25;;
71769;SDS011;66386;52.122;5.420;2023-02-28T05:51:27;1.53;;;1.13;;
71769;SDS011;66386;52.122;5.420;2023-02-28T05:53:54;5.35;;;1.90;;
71769;SDS011;66386;52.122;5.420;2023-02-28T05:56:24;3.28;;;1.50;;
71769;SDS011;66386;52.122;5.420;2023-02-28T05:58:50;2.53;;;1.33;;
71769;SDS011;66386;52.122;5.420;2023-02-28T06:01:31;2.95;;;1.48;;
71769;SDS011;66386;52.122;5.420;2023-02-28T06:04:03;2.37;;;1.17;;
71769;SDS011;66386;52.122;5.420;2023-02-28T06:06:31;2.45;;;1.38;;
71769;SDS011;66386;52.122;5.420;2023-02-28T06:08:58;3.58;;;1.73;;
71769;SDS011;66386;52.122;5.420;2023-02-28T06:11:25;2.63;;;1.20;;
71769;SDS011;66386;52.122;5.420;2023-02-28T06:13:54;2.33;;;1.35;;
71769;SDS011;66386;52.122;5.420;2023-02-28T06:16:26;2.33;;;1.60;;
71769;SDS011;66386;52.122;5.420;2023-02-28T06:18:54;4.75;;;2.13;;
71769;SDS011;66386;52.122;5.420;2023-02-28T06:21:23;2.58;;;1.58;;
71769;SDS011;66386;52.122;5.420;2023-02-28T06:23:50;3.88;;;1.90;;
71769;SDS011;66386;52.122;5.420;2023-02-28T06:26:16;2.78;;;1.38;;
71769;SDS011;66386;52.122;5.420;2023-02-28T06:28:43;2.67;;;1.80;;
71769;SDS011;66386;52.122;5.420;2023-02-28T06:31:10;3.95;;;1.80;;
71769;SDS011;66386;52.122;5.420;2023-02-28T06:33:39;3.13;;;1.65;;
71769;SDS011;66386;52.122;5.420;2023-02-28T06:36:06;4.13;;;1.65;;
71769;SDS011;66386;52.122;5.420;2023-02-28T06:38:33;2.28;;;1.77;;
71769;SDS011;66386;52.122;5.420;2023-02-28T06:41:01;2.33;;;1.53;;
71769;SDS011;66386;52.122;5.420;2023-02-28T06:43:29;1.70;;;1.52;;
71769;SDS011;66386;52.122;5.420;2023-02-28T06:45:57;2.58;;;1.40;;
71769;SDS011;66386;52.122;5.420;2023-02-28T06:48:26;4.40;;;2.00;;
71769;SDS011;66386;52.122;5.420;2023-02-28T06:51:06;4.03;;;1.90;;
71769;SDS011;66386;52.122;5.420;2023-02-28T06:53:35;2.27;;;1.70;;
71769;SDS011;66386;52.122;5.420;2023-02-28T06:56:08;4.35;;;2.00;;
71769;SDS011;66386;52.122;5.420;2023-02-28T06:58:37;3.03;;;1.63;;
71769;SDS011;66386;52.122;5.420;2023-02-28T07:01:05;2.92;;;1.77;;
71769;SDS011;66386;52.122;5.420;2023-02-28T07:03:34;4.30;;;2.25;;
71769;SDS011;66386;52.122;5.420;2023-02-28T07:06:02;2.53;;;1.63;;
71769;SDS011;66386;52.122;5.420;2023-02-28T07:08:30;2.88;;;1.90;;
71769;SDS011;66386;52.122;5.420;2023-02-28T07:10:57;2.35;;;1.67;;
71769;SDS011;66386;52.122;5.420;2023-02-28T07:13:24;3.78;;;2.30;;
71769;SDS011;66386;52.122;5.420;2023-02-28T07:16:01;5.00;;;2.30;;
71769;SDS011;66386;52.122;5.420;2023-02-28T07:18:29;3.00;;;2.20;;
71769;SDS011;66386;52.122;5.420;2023-02-28T07:20:56;3.85;;;2.63;;
71769;SDS011;66386;52.122;5.420;2023-02-28T07:23:23;5.22;;;2.53;;
71769;SDS011;66386;52.122;5.420;2023-02-28T07:25:50;4.43;;;2.20;;
71769;SDS011;66386;52.122;5.420;2023-02-28T07:28:17;4.65;;;2.40;;
71769;SDS011;66386;52.122;5.420;2023-02-28T07:30:44;4.27;;;2.57;;
71769;SDS011;66386;52.122;5.420;2023-02-28T07:33:11;4.65;;;2.13;;
71769;SDS011;66386;52.122;5.420;2023-02-28T07:35:38;3.78;;;2.20;;
71769;SDS011;66386;52.122;5.420;2023-02-28T07:38:04;2.90;;;1.60;;
71769;SDS011;66386;52.122;5.420;2023-02-28T07:40:31;4.35;;;2.17;;
71769;SDS011;66386;52.122;5.420;2023-02-28T07:42:58;2.70;;;1.63;;
71769;SDS011;66386;52.122;5.420;2023-02-28T07:45:26;3.22;;;2.20;;
71769;SDS011;66386;52.122;5.420;2023-02-28T07:47:55;3.08;;;1.75;;
71769;SDS011;66386;52.122;5.420;2023-02-28T07:50:22;3.55;;;1.80;;
71769;SDS011;66386;52.122;5.420;2023-02-28T07:52:50;6.03;;;1.75;;
71769;SDS011;66386;52.122;5.420;2023-02-28T07:55:17;3.43;;;2.20;;
71769;SDS011;66386;52.122;5.420;2023-02-28T07:57:44;3.50;;;1.50;;
71769;SDS011;66386;52.122;5.420;2023-02-28T08:00:11;2.30;;;1.60;;
71769;SDS011;66386;52.122;5.420;2023-02-28T08:02:39;4.43;;;2.03;;
71769;SDS011;66386;52.122;5.420;2023-02-28T08:05:06;4.80;;;1.60;;
71769;SDS011;66386;52.122;5.420;2023-02-28T08:07:33;3.10;;;2.10;;
71769;SDS011;66386;52.122;5.420;2023-02-28T08:10:00;3.15;;;1.85;;
71769;SDS011;66386;52.122;5.420;2023-02-28T08:12:26;3.45;;;1.88;;
71769;SDS011;66386;52.122;5.420;2023-02-28T08:14:53;3.80;;;1.98;;
71769;SDS011;66386;52.122;5.420;2023-02-28T08:17:19;2.72;;;1.75;;
71769;SDS011;66386;52.122;5.420;2023-02-28T08:19:46;2.53;;;1.63;;
71769;SDS011;66386;52.122;5.420;2023-02-28T08:22:12;7.88;;;2.33;;
71769;SDS011;66386;52.122;5.420;2023-02-28T08:24:40;4.25;;;2.03;;
71769;SDS011;66386;52.122;5.420;2023-02-28T08:27:08;4.30;;;2.33;;
71769;SDS011;66386;52.122;5.420;2023-02-28T08:29:38;3.92;;;1.90;;
71769;SDS011;66386;52.122;5.420;2023-02-28T08:32:06;3.47;;;1.87;;
71769;SDS011;66386;52.122;5.420;2023-02-28T08:34:48;7.05;;;1.83;;
71769;SDS011;66386;52.122;5.420;2023-02-28T08:37:15;4.43;;;1.80;;
71769;SDS011;66386;52.122;5.420;2023-02-28T08:39:41;3.15;;;1.77;;
71769;SDS011;66386;52.122;5.420;2023-02-28T08:42:11;2.80;;;1.70;;
71769;SDS011;66386;52.122;5.420;2023-02-28T08:44:37;2.83;;;1.70;;
71769;SDS011;66386;52.122;5.420;2023-02-28T08:47:04;3.30;;;1.70;;
71769;SDS011;66386;52.122;5.420;2023-02-28T08:49:30;3.17;;;1.90;;
71769;SDS011;66386;52.122;5.420;2023-02-28T08:51:57;3.85;;;1.73;;
71769;SDS011;66386;52.122;5.420;2023-02-28T08:54:23;1.70;;;1.30;;
71769;SDS011;66386;52.122;5.420;2023-02-28T08:56:51;3.03;;;1.50;;
71769;SDS011;66386;52.122;5.420;2023-02-28T08:59:17;2.28;;;1.30;;
71769;SDS011;66386;52.122;5.420;2023-02-28T09:01:44;2.35;;;1.50;;
71769;SDS011;66386;52.122;5.420;2023-02-28T09:04:10;2.25;;;1.23;;
71769;SDS011;66386;52.122;5.420;2023-02-28T09:06:42;2.67;;;1.35;;
71769;SDS011;66386;52.122;5.420;2023-02-28T09:09:08;1.17;;;0.87;;
71769;SDS011;66386;52.122;5.420;2023-02-28T09:11:35;1.85;;;1.05;;
71769;SDS011;66386;52.122;5.420;2023-02-28T09:14:02;1.75;;;0.90;;
71769;SDS011;66386;52.122;5.420;2023-02-28T09:16:30;2.53;;;1.15;;
71769;SDS011;66386;52.122;5.420;2023-02-28T09:18:58;2.65;;;1.23;;
71769;SDS011;66386;52.122;5.420;2023-02-28T09:21:25;2.60;;;1.13;;
71769;SDS011;66386;52.122;5.420;2023-02-28T09:23:52;1.40;;;0.80;;
71769;SDS011;66386;52.122;5.420;2023-02-28T09:26:23;1.38;;;0.73;;
71769;SDS011;66386;52.122;5.420;2023-02-28T09:28:51;1.30;;;0.80;;
71769;SDS011;66386;52.122;5.420;2023-02-28T09:31:19;1.70;;;0.60;;
71769;SDS011;66386;52.122;5.420;2023-02-28T09:33:48;1.43;;;0.60;;
71769;SDS011;66386;52.122;5.420;2023-02-28T09:36:16;1.52;;;0.70;;
71769;SDS011;66386;52.122;5.420;2023-02-28T09:38:43;1.92;;;0.60;;
71769;SDS011;66386;52.122;5.420;2023-02-28T09:41:15;2.03;;;0.50;;
71769;SDS011;66386;52.122;5.420;2023-02-28T09:43:44;1.00;;;0.55;;
71769;SDS011;66386;52.122;5.420;2023-02-28T09:46:27;0.97;;;0.53;;
71769;SDS011;66386;52.122;5.420;2023-02-28T09:48:58;1.17;;;0.38;;
71769;SDS011;66386;52.122;5.420;2023-02-28T09:54:42;0.95;;;0.60;;
71769;SDS011;66386;52.122;5.420;2023-02-28T09:57:54;1.55;;;0.60;;
71769;SDS011;66386;52.122;5.420;2023-02-28T10:05:49;1.10;;;0.60;;
71769;SDS011;66386;52.122;5.420;2023-02-28T10:08:22;0.68;;;0.50;;
71769;SDS011;66386;52.122;5.420;2023-02-28T10:10:51;1.17;;;0.50;;
71769;SDS011;66386;52.122;5.420;2023-02-28T10:15:59;1.08;;;0.70;;
71769;SDS011;66386;52.122;5.420;2023-02-28T10:18:35;0.80;;;0.32;;
71769;SDS011;66386;52.122;5.420;2023-02-28T10:21:18;1.98;;;0.95;;
71769;SDS011;66386;52.122;5.420;2023-02-28T10:24:02;0.52;;;0.40;;
71769;SDS011;66386;52.122;5.420;2023-02-28T10:26:47;1.00;;;0.47;;
71769;SDS011;66386;52.122;5.420;2023-02-28T10:29:15;0.82;;;0.50;;
71769;SDS011;66386;52.122;5.420;2023-02-28T10:31:41;1.08;;;0.60;;
71769;SDS011;66386;52.122;5.420;2023-02-28T10:34:10;0.95;;;0.50;;
71769;SDS011;66386;52.122;5.420;2023-02-28T10:36:38;1.38;;;0.80;;
71769;SDS011;66386;52.122;5.420;2023-02-28T10:42:01;1.92;;;0.57;;
71769;SDS011;66386;52.122;5.420;2023-02-28T10:44:28;1.52;;;0.60;;
71769;SDS011;66386;52.122;5.420;2023-02-28T10:46:54;1.52;;;0.65;;
71769;SDS011;66386;52.122;5.420;2023-02-28T10:49:26;0.73;;;0.50;;
71769;SDS011;66386;52.122;5.420;2023-02-28T10:52:00;2.00;;;0.60;;
71769;SDS011;66386;52.122;5.420;2023-02-28T10:54:29;2.83;;;1.10;;
71769;SDS011;66386;52.122;5.420;2023-02-28T10:59:43;0.88;;;0.43;;
71769;SDS011;66386;52.122;5.420;2023-02-28T11:02:28;1.33;;;0.40;;
71769;SDS011;66386;52.122;5.420;2023-02-28T11:04:57;0.87;;;0.60;;
71769;SDS011;66386;52.122;5.420;2023-02-28T11:07:24;2.15;;;0.52;;
71769;SDS011;66386;52.122;5.420;2023-02-28T11:09:56;0.88;;;0.40;;
71769;SDS011;66386;52.122;5.420;2023-02-28T11:12:36;0.90;;;0.60;;
71769;SDS011;66386;52.122;5.420;2023-02-28T11:15:20;0.73;;;0.50;;
71769;SDS011;66386;52.122;5.420;2023-02-28T11:17:58;0.60;;;0.40;;
71769;SDS011;66386;52.122;5.420;2023-02-28T11:20:47;1.20;;;0.47;;
71769;SDS011;66386;52.122;5.420;2023-02-28T11:23:16;0.55;;;0.43;;
71769;SDS011;66386;52.122;5.420;2023-02-28T11:25:47;1.42;;;0.75;;
71769;SDS011;66386;52.122;5.420;2023-02-28T11:28:31;1.60;;;0.45;;
71769;SDS011;66386;52.122;5.420;2023-02-28T11:33:27;1.40;;;0.60;;
71769;SDS011;66386;52.122;5.420;2023-02-28T11:35:57;1.08;;;0.50;;
71769;SDS011;66386;52.122;5.420;2023-02-28T11:38:36;1.80;;;0.70;;
71769;SDS011;66386;52.122;5.420;2023-02-28T11:41:25;1.90;;;0.70;;
71769;SDS011;66386;52.122;5.420;2023-02-28T11:44:19;2.27;;;0.50;;
71769;SDS011;66386;52.122;5.420;2023-02-28T11:49:30;1.52;;;0.57;;
71769;SDS011;66386;52.122;5.420;2023-02-28T11:57:41;2.03;;;0.70;;
71769;SDS011;66386;52.122;5.420;2023-02-28T12:09:20;1.30;;;0.52;;
71769;SDS011;66386;52.122;5.420;2023-02-28T12:12:27;2.43;;;0.50;;
71769;SDS011;66386;52.122;5.420;2023-02-28T12:26:36;1.30;;;0.60;;
71769;SDS011;66386;52.122;5.420;2023-02-28T12:31:59;1.25;;;0.73;;
71769;SDS011;66386;52.122;5.420;2023-02-28T12:34:49;1.10;;;0.57;;
71769;SDS011;66386;52.122;5.420;2023-02-28T12:37:41;1.10;;;0.68;;
71769;SDS011;66386;52.122;5.420;2023-02-28T12:40:15;2.13;;;1.43;;
71769;SDS011;66386;52.122;5.420;2023-02-28T12:42:50;0.95;;;0.52;;
71769;SDS011;66386;52.122;5.420;2023-02-28T12:45:20;2.70;;;0.63;;
71769;SDS011;66386;52.122;5.420;2023-02-28T12:47:48;1.30;;;0.70;;
71769;SDS011;66386;52.122;5.420;2023-02-28T12:50:29;1.95;;;0.70;;
71769;SDS011;66386;52.122;5.420;2023-02-28T12:52:59;1.00;;;0.50;;
71769;SDS011;66386;52.122;5.420;2023-02-28T12:55:40;1.05;;;0.50;;
71769;SDS011;66386;52.122;5.420;2023-02-28T12:58:36;1.45;;;0.68;;
71769;SDS011;66386;52.122;5.420;2023-02-28T13:07:08;0.70;;;0.60;;
71769;SDS011;66386;52.122;5.420;2023-02-28T13:09:54;1.48;;;0.60;;
71769;SDS011;66386;52.122;5.420;2023-02-28T13:12:22;1.15;;;0.75;;
71769;SDS011;66386;52.122;5.420;2023-02-28T13:14:49;0.95;;;0.60;;
71769;SDS011;66386;52.122;5.420;2023-02-28T13:17:20;1.88;;;0.90;;
71769;SDS011;66386;52.122;5.420;2023-02-28T13:22:35;2.33;;;0.95;;
71769;SDS011;66386;52.122;5.420;2023-02-28T13:27:49;1.17;;;0.73;;
71769;SDS011;66386;52.122;5.420;2023-02-28T13:33:30;1.17;;;0.47;;
71769;SDS011;66386;52.122;5.420;2023-02-28T13:46:32;0.80;;;0.60;;
71769;SDS011;66386;52.122;5.420;2023-02-28T14:03:19;1.20;;;0.80;;
71769;SDS011;66386;52.122;5.420;2023-02-28T14:08:45;2.25;;;0.80;;
71769;SDS011;66386;52.122;5.420;2023-02-28T14:11:33;2.70;;;0.82;;
71769;SDS011;66386;52.122;5.420;2023-02-28T14:14:02;1.13;;;0.70;;
71769;SDS011;66386;52.122;5.420;2023-02-28T14:16:47;1.98;;;1.05;;
71769;SDS011;66386;52.122;5.420;2023-02-28T14:19:22;3.22;;;1.02;;
71769;SDS011;66386;52.122;5.420;2023-02-28T14:25:11;1.38;;;0.70;;
71769;SDS011;66386;52.122;5.420;2023-02-28T14:27:48;2.50;;;0.70;;
71769;SDS011;66386;52.122;5.420;2023-02-28T14:38:04;2.22;;;0.80;;
71769;SDS011;66386;52.122;5.420;2023-02-28T14:40:33;1.33;;;0.80;;
71769;SDS011;66386;52.122;5.420;2023-02-28T14:43:05;2.08;;;1.02;;
71769;SDS011;66386;52.122;5.420;2023-02-28T14:45:33;2.20;;;0.90;;
71769;SDS011;66386;52.122;5.420;2023-02-28T14:48:03;2.08;;;1.02;;
71769;SDS011;66386;52.122;5.420;2023-02-28T14:50:36;2.00;;;0.77;;
71769;SDS011;66386;52.122;5.420;2023-02-28T14:53:03;1.67;;;0.70;;
71769;SDS011;66386;52.122;5.420;2023-02-28T14:55:43;2.58;;;0.93;;
71769;SDS011;66386;52.122;5.420;2023-02-28T15:01:18;1.65;;;0.90;;
71769;SDS011;66386;52.122;5.420;2023-02-28T15:03:47;1.67;;;0.77;;
71769;SDS011;66386;52.122;5.420;2023-02-28T15:06:15;1.77;;;0.90;;
71769;SDS011;66386;52.122;5.420;2023-02-28T15:08:46;0.90;;;0.63;;
71769;SDS011;66386;52.122;5.420;2023-02-28T15:11:17;1.25;;;0.77;;
71769;SDS011;66386;52.122;5.420;2023-02-28T15:16:28;1.42;;;0.88;;
71769;SDS011;66386;52.122;5.420;2023-02-28T15:19:11;2.03;;;0.73;;
71769;SDS011;66386;52.122;5.420;2023-02-28T15:21:43;2.17;;;0.80;;
71769;SDS011;66386;52.122;5.420;2023-02-28T15:24:14;1.92;;;0.70;;
71769;SDS011;66386;52.122;5.420;2023-02-28T15:26:52;2.97;;;0.77;;
71769;SDS011;66386;52.122;5.420;2023-02-28T15:29:23;1.35;;;0.90;;
71769;SDS011;66386;52.122;5.420;2023-02-28T15:40:09;1.80;;;0.65;;
71769;SDS011;66386;52.122;5.420;2023-02-28T15:42:36;1.85;;;0.70;;
71769;SDS011;66386;52.122;5.420;2023-02-28T15:45:03;1.23;;;0.70;;
71769;SDS011;66386;52.122;5.420;2023-02-28T15:47:30;1.70;;;0.70;;
71769;SDS011;66386;52.122;5.420;2023-02-28T15:50:00;1.75;;;0.80;;
71769;SDS011;66386;52.122;5.420;2023-02-28T15:52:40;1.35;;;0.70;;
71769;SDS011;66386;52.122;5.420;2023-02-28T15:55:18;1.10;;;0.98;;
71769;SDS011;66386;52.122;5.420;2023-02-28T15:57:56;0.80;;;0.60;;
71769;SDS011;66386;52.122;5.420;2023-02-28T16:00:27;1.30;;;0.77;;
71769;SDS011;66386;52.122;5.420;2023-02-28T16:02:55;2.67;;;0.90;;
71769;SDS011;66386;52.122;5.420;2023-02-28T16:05:23;2.53;;;0.98;;
71769;SDS011;66386;52.122;5.420;2023-02-28T16:07:57;1.02;;;0.60;;
71769;SDS011;66386;52.122;5.420;2023-02-28T16:10:26;1.20;;;0.80;;
71769;SDS011;66386;52.122;5.420;2023-02-28T16:12:57;1.08;;;0.75;;
71769;SDS011;66386;52.122;5.420;2023-02-28T16:15:28;1.08;;;0.52;;
71769;SDS011;66386;52.122;5.420;2023-02-28T16:17:57;1.13;;;0.63;;
71769;SDS011;66386;52.122;5.420;2023-02-28T16:20:26;1.52;;;0.77;;
71769;SDS011;66386;52.122;5.420;2023-02-28T16:22:54;0.93;;;0.77;;
71769;SDS011;66386;52.122;5.420;2023-02-28T16:28:02;0.93;;;0.55;;
71769;SDS011;66386;52.122;5.420;2023-02-28T16:30:30;1.20;;;0.65;;
71769;SDS011;66386;52.122;5.420;2023-02-28T16:32:59;2.47;;;1.00;;
71769;SDS011;66386;52.122;5.420;2023-02-28T16:35:26;1.67;;;0.87;;
71769;SDS011;66386;52.122;5.420;2023-02-28T16:37:53;1.23;;;0.90;;
71769;SDS011;66386;52.122;5.420;2023-02-28T16:40:24;1.63;;;0.88;;
71769;SDS011;66386;52.122;5.420;2023-02-28T16:42:52;2.30;;;1.23;;
71769;SDS011;66386;52.122;5.420;2023-02-28T16:45:24;2.05;;;1.00;;
71769;SDS011;66386;52.122;5.420;2023-02-28T16:47:55;1.50;;;0.90;;
71769;SDS011;66386;52.122;5.420;2023-02-28T16:50:29;1.10;;;0.80;;
71769;SDS011;66386;52.122;5.420;2023-02-28T16:52:58;2.33;;;1.38;;
71769;SDS011;66386;52.122;5.420;2023-02-28T16:55:25;3.05;;;1.80;;
71769;SDS011;66386;52.122;5.420;2023-02-28T16:57:54;5.03;;;2.22;;
71769;SDS011;66386;52.122;5.420;2023-02-28T17:00:23;4.70;;;2.20;;
71769;SDS011;66386;52.122;5.420;2023-02-28T17:02:50;3.80;;;1.60;;
71769;SDS011;66386;52.122;5.420;2023-02-28T17:05:17;3.63;;;1.85;;
71769;SDS011;66386;52.122;5.420;2023-02-28T17:07:45;3.85;;;1.48;;
71769;SDS011;66386;52.122;5.420;2023-02-28T17:10:22;2.58;;;1.60;;
71769;SDS011;66386;52.122;5.420;2023-02-28T17:12:54;1.70;;;1.30;;
71769;SDS011;66386;52.122;5.420;2023-02-28T17:15:34;3.17;;;1.17;;
71769;SDS011;66386;52.122;5.420;2023-02-28T17:18:02;1.83;;;1.50;;
71769;SDS011;66386;52.122;5.420;2023-02-28T17:20:29;1.92;;;1.33;;
71769;SDS011;66386;52.122;5.420;2023-02-28T17:22:56;2.65;;;1.50;;
71769;SDS011;66386;52.122;5.420;2023-02-28T17:25:23;3.20;;;1.30;;
71769;SDS011;66386;52.122;5.420;2023-02-28T17:27:50;2.08;;;1.20;;
71769;SDS011;66386;52.122;5.420;2023-02-28T17:30:23;3.92;;;1.50;;
71769;SDS011;66386;52.122;5.420;2023-02-28T17:32:53;1.45;;;1.08;;
71769;SDS011;66386;52.122;5.420;2023-02-28T17:35:23;2.05;;;1.30;;
71769;SDS011;66386;52.122;5.420;2023-02-28T17:37:50;3.63;;;1.20;;
71769;SDS011;66386;52.122;5.420;2023-02-28T17:40:18;1.90;;;1.50;;
71769;SDS011;66386;52.122;5.420;2023-02-28T17:42:47;2.55;;;1.42;;